createdAt,value
2018-02-23T00:02:31.260Z,3.13
2018-02-23T00:05:06.268Z,3.09
2018-02-23T00:07:47.242Z,3.05
2018-02-23T00:10:22.174Z,3.01
2018-02-23T00:12:57.748Z,3.00
2018-02-23T00:15:32.111Z,2.92
2018-02-23T00:18:06.812Z,2.92
2018-02-23T00:20:41.831Z,2.99
2018-02-23T00:23:16.967Z,3.02
2018-02-23T00:25:51.998Z,3.05
2018-02-23T00:28:26.342Z,2.99
2018-02-23T00:31:01.871Z,3.00
2018-02-23T00:33:36.988Z,3.01
2018-02-23T00:36:12.299Z,3.03
2018-02-23T00:38:47.355Z,3.02
2018-02-23T00:41:22.242Z,3.02
2018-02-23T00:43:57.435Z,3.01
2018-02-23T00:46:32.912Z,2.99
2018-02-23T00:49:08.288Z,2.96
2018-02-23T00:51:43.303Z,2.97
2018-02-23T00:54:18.295Z,3.01
2018-02-23T00:56:53.367Z,3.09
2018-02-23T00:59:28.299Z,3.07
2018-02-23T01:02:03.541Z,3.08
2018-02-23T01:04:39.068Z,3.08
2018-02-23T01:07:14.227Z,3.12
2018-02-23T01:09:49.154Z,3.14
2018-02-23T01:12:23.504Z,3.11
2018-02-23T01:14:58.152Z,3.10
2018-02-23T01:17:33.132Z,3.09
2018-02-23T01:20:08.404Z,3.10
2018-02-23T01:22:42.844Z,3.06
2018-02-23T01:25:17.555Z,3.01
2018-02-23T01:27:52.591Z,3.03
2018-02-23T01:30:28.191Z,3.08
2018-02-23T01:33:02.626Z,3.09
2018-02-23T01:35:38.027Z,3.07
2018-02-23T01:38:12.559Z,3.02
2018-02-23T01:40:47.131Z,2.99
2018-02-23T01:43:22.135Z,2.93
2018-02-23T01:45:56.587Z,2.88
2018-02-23T01:48:31.547Z,2.86
2018-02-23T01:51:06.499Z,2.85
2018-02-23T01:53:41.132Z,2.90
2018-02-23T01:56:16.218Z,2.86
2018-02-23T01:58:51.195Z,2.78
2018-02-23T02:01:26.225Z,2.78
2018-02-23T02:04:01.015Z,2.80
2018-02-23T02:06:36.027Z,2.79
2018-02-23T02:09:11.232Z,2.77
2018-02-23T02:11:46.269Z,2.77
2018-02-23T02:14:20.683Z,2.72
2018-02-23T02:16:55.527Z,2.69
2018-02-23T02:19:30.743Z,2.70
2018-02-23T02:22:06.515Z,2.70
2018-02-23T02:24:41.282Z,2.75
2018-02-23T02:27:16.099Z,2.84
2018-02-23T02:29:50.660Z,2.90
2018-02-23T02:32:25.606Z,2.88
2018-02-23T02:35:00.347Z,2.86
2018-02-23T02:37:35.429Z,2.88
2018-02-23T02:40:10.791Z,2.87
2018-02-23T02:42:45.349Z,2.76
2018-02-23T02:45:20.188Z,2.63
2018-02-23T02:47:55.287Z,2.61
2018-02-23T02:50:30.585Z,2.58
2018-02-23T02:53:06.572Z,2.59
2018-02-23T02:55:41.374Z,2.55
2018-02-23T02:58:16.321Z,2.50
2018-02-23T03:00:51.496Z,2.48
2018-02-23T03:03:26.218Z,2.38
2018-02-23T03:06:01.264Z,2.29
2018-02-23T03:08:36.148Z,2.18
2018-02-23T03:11:10.863Z,2.20
2018-02-23T03:13:45.242Z,2.16
2018-02-23T03:16:20.660Z,2.12
2018-02-23T03:18:56.353Z,1.97
2018-02-23T03:21:31.724Z,1.97
2018-02-23T03:24:06.831Z,2.03
2018-02-23T03:26:42.406Z,2.11
2018-02-23T03:29:17.603Z,2.15
2018-02-23T03:31:52.716Z,2.18
2018-02-23T03:34:27.436Z,2.24
2018-02-23T03:37:02.720Z,2.20
2018-02-23T03:39:37.778Z,2.23
2018-02-23T03:42:13.267Z,2.16
2018-02-23T03:44:48.580Z,2.10
2018-02-23T03:47:23.652Z,2.08
2018-02-23T03:50:01.874Z,2.11
2018-02-23T03:52:37.430Z,1.97
2018-02-23T03:55:12.691Z,1.89
2018-02-23T03:57:47.317Z,1.85
2018-02-23T04:00:22.616Z,1.84
2018-02-23T04:02:57.684Z,1.87
2018-02-23T04:05:32.463Z,1.96
2018-02-23T04:08:07.748Z,1.89
2018-02-23T04:10:42.378Z,1.96
2018-02-23T04:13:17.330Z,2.04
2018-02-23T04:15:52.556Z,2.00
2018-02-23T04:18:27.829Z,2.03
2018-02-23T04:21:02.548Z,1.99
2018-02-23T04:23:37.422Z,1.98
2018-02-23T04:26:12.372Z,1.93
2018-02-23T04:28:47.491Z,1.92
2018-02-23T04:31:22.547Z,1.97
2018-02-23T04:33:57.459Z,1.96
2018-02-23T04:36:32.719Z,1.93
2018-02-23T04:39:07.904Z,1.94
2018-02-23T04:41:43.487Z,1.97
2018-02-23T04:44:18.903Z,2.07
2018-02-23T04:46:54.391Z,2.05
2018-02-23T04:49:29.480Z,2.03
2018-02-23T04:52:04.579Z,1.94
2018-02-23T04:54:39.643Z,1.90
2018-02-23T04:57:14.119Z,1.83
2018-02-23T04:59:48.780Z,1.79
2018-02-23T05:02:24.012Z,1.78
2018-02-23T05:04:59.176Z,1.77
2018-02-23T05:07:34.520Z,1.78
2018-02-23T05:10:08.598Z,1.66
2018-02-23T05:12:42.943Z,1.65
2018-02-23T05:15:18.179Z,1.58
2018-02-23T05:17:53.545Z,1.60
2018-02-23T05:20:28.685Z,1.40
2018-02-23T05:23:03.801Z,1.37
2018-02-23T05:25:39.090Z,1.36
2018-02-23T05:28:14.700Z,1.28
2018-02-23T05:30:49.912Z,1.18
2018-02-23T05:33:24.868Z,1.14
2018-02-23T05:35:59.776Z,1.19
2018-02-23T05:38:34.807Z,1.18
2018-02-23T05:41:10.053Z,1.21
2018-02-23T05:43:45.627Z,1.23
2018-02-23T05:46:21.040Z,1.23
2018-02-23T05:48:56.075Z,1.29
2018-02-23T05:51:31.236Z,1.35
2018-02-23T05:54:07.088Z,1.31
2018-02-23T05:56:41.744Z,1.22
2018-02-23T05:59:16.376Z,1.24
2018-02-23T06:01:50.878Z,1.27
2018-02-23T06:04:25.663Z,1.22
2018-02-23T06:07:00.840Z,1.13
2018-02-23T06:09:35.319Z,1.03
2018-02-23T06:12:10.802Z,0.97
2018-02-23T06:14:45.784Z,0.92
2018-02-23T06:17:26.568Z,0.94
2018-02-23T06:20:06.315Z,0.97
2018-02-23T06:22:41.652Z,0.98
2018-02-23T06:25:17.174Z,0.97
2018-02-23T06:27:52.348Z,0.98
2018-02-23T06:30:27.471Z,0.92
2018-02-23T06:33:02.224Z,0.91
2018-02-23T06:35:37.254Z,0.88
2018-02-23T06:38:12.304Z,0.86
2018-02-23T06:40:47.152Z,0.80
2018-02-23T06:43:21.983Z,0.79
2018-02-23T06:45:57.444Z,0.78
2018-02-23T06:48:32.847Z,0.75
2018-02-23T06:51:08.299Z,0.67
2018-02-23T06:53:43.256Z,0.69
2018-02-23T06:56:19.124Z,0.85
2018-02-23T06:58:53.995Z,0.94
2018-02-23T07:01:29.043Z,1.01
2018-02-23T07:04:03.971Z,1.11
2018-02-23T07:06:38.483Z,1.22
2018-02-23T07:09:13.820Z,1.38
2018-02-23T07:11:49.088Z,1.60
2018-02-23T07:14:23.977Z,1.78
2018-02-23T07:16:58.903Z,1.89
2018-02-23T07:19:34.085Z,1.97
2018-02-23T07:22:08.936Z,1.97
2018-02-23T07:24:43.331Z,2.10
2018-02-23T07:27:18.291Z,2.21
2018-02-23T07:29:53.261Z,2.24
2018-02-23T07:32:27.756Z,2.19
2018-02-23T07:35:02.333Z,2.15
2018-02-23T07:37:37.314Z,2.16
2018-02-23T07:40:12.278Z,2.10
2018-02-23T07:42:47.324Z,2.01
2018-02-23T07:45:21.927Z,1.95
2018-02-23T07:47:56.784Z,1.81
2018-02-23T07:50:31.760Z,1.71
2018-02-23T07:53:07.456Z,1.71
2018-02-23T07:55:42.219Z,1.77
2018-02-23T07:58:16.874Z,1.80
2018-02-23T08:00:52.152Z,1.69
2018-02-23T08:03:27.443Z,1.55
2018-02-23T08:06:01.884Z,1.67
2018-02-23T08:08:37.127Z,1.50
2018-02-23T08:11:11.611Z,1.47
2018-02-23T08:13:46.215Z,1.46
2018-02-23T08:16:21.495Z,1.48
2018-02-23T08:18:57.031Z,1.52
2018-02-23T08:21:31.947Z,1.34
2018-02-23T08:24:07.515Z,1.38
2018-02-23T08:26:42.348Z,1.38
2018-02-23T08:29:17.079Z,1.12
2018-02-23T08:31:52.189Z,1.11
2018-02-23T08:34:27.459Z,1.40
2018-02-23T08:37:02.135Z,1.38
2018-02-23T08:39:37.303Z,1.46
2018-02-23T08:42:11.655Z,1.53
2018-02-23T08:44:46.696Z,1.96
2018-02-23T08:47:21.256Z,2.10
2018-02-23T08:49:55.591Z,2.31
2018-02-23T08:52:30.175Z,2.58
2018-02-23T08:55:05.465Z,2.70
2018-02-23T08:57:40.252Z,2.73
2018-02-23T09:00:19.451Z,2.82
2018-02-23T09:02:54.263Z,2.85
2018-02-23T09:05:29.415Z,2.60
2018-02-23T09:08:04.351Z,2.42
2018-02-23T09:10:39.467Z,2.61
2018-02-23T09:13:15.396Z,2.79
2018-02-23T09:15:50.287Z,2.82
2018-02-23T09:18:25.237Z,3.17
2018-02-23T09:21:00.367Z,3.51
2018-02-23T09:23:35.523Z,3.78
2018-02-23T09:26:10.272Z,3.94
2018-02-23T09:28:45.403Z,4.21
2018-02-23T09:31:20.586Z,4.53
2018-02-23T09:34:06.651Z,4.75
2018-02-23T09:36:42.228Z,4.63
2018-02-23T09:39:17.390Z,4.39
2018-02-23T09:41:52.518Z,4.40
2018-02-23T09:44:27.659Z,4.08
2018-02-23T09:47:02.264Z,3.77
2018-02-23T09:49:37.243Z,3.71
2018-02-23T09:52:12.267Z,3.49
2018-02-23T09:54:47.407Z,3.35
2018-02-23T09:57:22.547Z,3.53
2018-02-23T09:59:56.881Z,3.98
2018-02-23T10:02:31.447Z,4.47
2018-02-23T10:05:06.124Z,5.00
2018-02-23T10:07:41.296Z,5.43
2018-02-23T10:10:16.730Z,5.69
2018-02-23T10:12:51.912Z,5.67
2018-02-23T10:15:27.331Z,5.63
2018-02-23T10:18:02.291Z,5.49
2018-02-23T10:20:36.782Z,5.67
2018-02-23T10:23:12.248Z,5.74
2018-02-23T10:25:47.311Z,5.89
2018-02-23T10:28:22.659Z,5.37
2018-02-23T10:30:57.672Z,5.38
2018-02-23T10:33:32.871Z,5.49
2018-02-23T10:36:08.172Z,5.91
2018-02-23T10:38:43.124Z,6.06
2018-02-23T10:41:18.179Z,6.06
2018-02-23T10:43:52.367Z,5.82
2018-02-23T10:46:27.163Z,6.06
2018-02-23T10:49:02.327Z,6.38
2018-02-23T10:51:36.784Z,6.47
2018-02-23T10:54:11.433Z,6.58
2018-02-23T10:56:45.779Z,6.45
2018-02-23T10:59:20.739Z,6.15
2018-02-23T11:01:56.111Z,6.03
2018-02-23T11:04:31.188Z,6.04
2018-02-23T11:07:07.492Z,5.86
2018-02-23T11:09:42.480Z,5.69
2018-02-23T11:12:17.293Z,5.34
2018-02-23T11:14:52.517Z,5.26
2018-02-23T11:17:27.520Z,5.53
2018-02-23T11:20:02.612Z,5.76
2018-02-23T11:22:37.483Z,5.74
2018-02-23T11:25:11.847Z,5.73
2018-02-23T11:27:46.948Z,5.71
2018-02-23T11:30:21.927Z,5.89
2018-02-23T11:32:56.592Z,5.67
2018-02-23T11:35:32.551Z,5.40
2018-02-23T11:38:07.950Z,5.78
2018-02-23T11:40:42.929Z,6.09
2018-02-23T11:43:18.216Z,6.59
2018-02-23T11:45:53.060Z,7.15
2018-02-23T11:48:27.745Z,7.61
2018-02-23T11:51:02.907Z,7.96
2018-02-23T11:53:38.507Z,8.10
2018-02-23T11:56:13.431Z,7.85
2018-02-23T11:58:48.582Z,7.90
2018-02-23T12:01:23.585Z,7.99
2018-02-23T12:03:58.675Z,7.94
2018-02-23T12:06:33.660Z,8.21
2018-02-23T12:09:08.593Z,8.33
2018-02-23T12:11:43.591Z,8.14
2018-02-23T12:14:18.659Z,7.66
2018-02-23T12:16:53.607Z,7.46
2018-02-23T12:19:27.961Z,6.94
2018-02-23T12:22:02.688Z,6.64
2018-02-23T12:24:37.931Z,6.50
2018-02-23T12:27:12.858Z,6.48
2018-02-23T12:29:47.652Z,6.62
2018-02-23T12:32:22.863Z,6.82
2018-02-23T12:34:57.819Z,6.60
2018-02-23T12:37:32.652Z,6.78
2018-02-23T12:40:08.079Z,7.19
2018-02-23T12:42:42.828Z,7.23
2018-02-23T12:45:18.143Z,6.79
2018-02-23T12:47:53.475Z,6.38
2018-02-23T12:50:28.656Z,6.41
2018-02-23T12:53:03.919Z,6.22
2018-02-23T12:55:38.977Z,5.98
2018-02-23T12:58:14.645Z,5.79
2018-02-23T13:00:49.688Z,5.45
2018-02-23T13:03:24.854Z,5.16
2018-02-23T13:05:59.191Z,5.03
2018-02-23T13:08:33.641Z,5.25
2018-02-23T13:11:08.092Z,5.61
2018-02-23T13:13:42.691Z,5.64
2018-02-23T13:16:29.718Z,5.68
2018-02-23T13:19:04.131Z,5.33
2018-02-23T13:21:38.751Z,5.21
2018-02-23T13:24:13.767Z,5.01
2018-02-23T13:26:47.862Z,5.04
2018-02-23T13:29:23.053Z,5.27
2018-02-23T13:31:58.583Z,5.44
2018-02-23T13:34:32.789Z,5.78
2018-02-23T13:37:08.140Z,6.18
2018-02-23T13:39:43.039Z,6.31
2018-02-23T13:42:17.858Z,6.38
2018-02-23T13:44:52.935Z,6.59
2018-02-23T13:47:27.891Z,6.71
2018-02-23T13:50:02.774Z,6.58
2018-02-23T13:52:37.745Z,6.22
2018-02-23T13:55:13.020Z,5.81
2018-02-23T13:57:48.032Z,5.75
2018-02-23T14:00:23.451Z,5.80
2018-02-23T14:02:58.635Z,5.83
2018-02-23T14:05:36.130Z,5.95
2018-02-23T14:08:11.708Z,6.10
2018-02-23T14:10:46.168Z,6.49
2018-02-23T14:13:21.719Z,6.62
2018-02-23T14:15:56.851Z,6.01
2018-02-23T14:18:32.164Z,5.62
2018-02-23T14:21:08.291Z,5.47
2018-02-23T14:23:43.704Z,5.84
2018-02-23T14:26:19.093Z,5.79
2018-02-23T14:28:54.762Z,5.64
2018-02-23T14:31:29.420Z,5.32
2018-02-23T14:34:04.873Z,5.34
2018-02-23T14:36:39.908Z,5.32
2018-02-23T14:39:15.055Z,5.24
2018-02-23T14:41:49.400Z,4.96
2018-02-23T14:44:24.275Z,4.84
2018-02-23T14:46:58.902Z,4.78
2018-02-23T14:49:33.912Z,4.72
2018-02-23T14:52:08.903Z,4.91
2018-02-23T14:54:43.239Z,4.99
2018-02-23T14:57:18.375Z,5.11
2018-02-23T14:59:53.381Z,5.28
2018-02-23T15:02:28.435Z,5.34
2018-02-23T15:05:03.995Z,5.16
2018-02-23T15:07:38.903Z,5.06
2018-02-23T15:10:14.231Z,5.14
2018-02-23T15:12:49.087Z,4.86
2018-02-23T15:15:23.919Z,4.74
2018-02-23T15:17:59.254Z,4.70
2018-02-23T15:20:33.699Z,4.48
2018-02-23T15:23:09.145Z,4.39
2018-02-23T15:25:43.296Z,4.34
2018-02-23T15:28:18.014Z,4.29
2018-02-23T15:31:03.580Z,4.33
2018-02-23T15:33:39.139Z,4.28
2018-02-23T15:36:13.423Z,4.13
2018-02-23T15:38:49.033Z,3.99
2018-02-23T15:41:24.558Z,3.78
2018-02-23T15:43:59.076Z,3.62
2018-02-23T15:46:33.723Z,3.89
2018-02-23T15:49:15.351Z,3.94
2018-02-23T15:51:53.327Z,4.11
2018-02-23T15:54:28.346Z,4.07
2018-02-23T15:57:03.476Z,3.70
2018-02-23T15:59:37.976Z,3.45
2018-02-23T16:02:13.195Z,3.48
2018-02-23T16:04:48.235Z,3.64
2018-02-23T16:07:22.484Z,3.65
2018-02-23T16:09:58.312Z,3.55
2018-02-23T16:12:33.144Z,3.32
2018-02-23T16:15:08.539Z,3.22
2018-02-23T16:17:44.187Z,2.97
2018-02-23T16:20:19.653Z,2.83
2018-02-23T16:22:54.375Z,2.77
2018-02-23T16:25:29.447Z,2.72
2018-02-23T16:28:04.420Z,2.90
2018-02-23T16:30:38.608Z,3.03
2018-02-23T16:33:13.792Z,2.88
2018-02-23T16:35:49.240Z,2.61
2018-02-23T16:38:24.219Z,2.59
2018-02-23T16:40:58.555Z,2.66
2018-02-23T16:43:33.665Z,2.83
2018-02-23T16:46:08.707Z,2.98
2018-02-23T16:48:43.345Z,3.11
2018-02-23T16:51:18.567Z,3.02
2018-02-23T16:53:53.507Z,2.92
2018-02-23T16:56:28.288Z,2.98
2018-02-23T16:59:03.639Z,3.05
2018-02-23T17:01:38.515Z,3.00
2018-02-23T17:04:13.254Z,2.76
2018-02-23T17:06:48.315Z,2.69
2018-02-23T17:09:23.295Z,2.63
2018-02-23T17:11:58.295Z,2.69
2018-02-23T17:14:33.351Z,2.68
2018-02-23T17:17:08.676Z,2.65
2018-02-23T17:19:43.563Z,2.59
2018-02-23T17:22:18.658Z,2.63
2018-02-23T17:24:53.332Z,2.61
2018-02-23T17:27:27.867Z,2.62
2018-02-23T17:30:03.003Z,2.60
2018-02-23T17:32:37.682Z,2.53
2018-02-23T17:35:12.248Z,2.54
2018-02-23T17:37:47.275Z,2.53
2018-02-23T17:40:22.663Z,2.55
2018-02-23T17:42:57.755Z,2.57
2018-02-23T17:45:33.205Z,2.50
2018-02-23T17:48:08.615Z,2.38
2018-02-23T17:50:43.383Z,2.40
2018-02-23T17:53:18.946Z,2.42
2018-02-23T17:55:53.505Z,2.41
2018-02-23T17:58:28.378Z,2.29
2018-02-23T18:01:02.955Z,2.33
2018-02-23T18:03:37.702Z,2.38
2018-02-23T18:06:13.330Z,2.32
2018-02-23T18:08:47.787Z,2.34
2018-02-23T18:11:23.475Z,2.36
2018-02-23T18:13:58.624Z,2.28
2018-02-23T18:16:33.259Z,2.11
2018-02-23T18:19:08.784Z,2.02
2018-02-23T18:21:43.734Z,1.97
2018-02-23T18:24:18.516Z,1.79
2018-02-23T18:26:53.075Z,1.53
2018-02-23T18:29:28.592Z,1.24
2018-02-23T18:32:03.499Z,1.22
2018-02-23T18:34:38.438Z,1.25
2018-02-23T18:37:13.655Z,1.34
2018-02-23T18:39:48.408Z,1.25
2018-02-23T18:42:22.889Z,1.27
2018-02-23T18:44:58.579Z,1.18
2018-02-23T18:47:34.317Z,1.10
2018-02-23T18:50:09.083Z,1.02
2018-02-23T18:52:44.120Z,0.94
2018-02-23T18:55:19.323Z,0.84
2018-02-23T18:57:54.595Z,0.82
2018-02-23T19:00:29.715Z,0.88
2018-02-23T19:03:04.724Z,0.87
2018-02-23T19:05:39.277Z,0.89
2018-02-23T19:08:15.955Z,0.98
2018-02-23T19:10:51.019Z,0.99
2018-02-23T19:13:25.765Z,0.89
2018-02-23T19:16:00.361Z,0.77
2018-02-23T19:18:35.555Z,0.78
2018-02-23T19:21:10.009Z,0.67
2018-02-23T19:23:45.396Z,0.67
2018-02-23T19:26:19.938Z,0.69
2018-02-23T19:28:54.613Z,0.66
2018-02-23T19:31:29.700Z,0.75
2018-02-23T19:34:04.698Z,0.84
2018-02-23T19:36:40.038Z,0.95
2018-02-23T19:39:15.221Z,0.95
2018-02-23T19:41:49.822Z,0.98
2018-02-23T19:44:24.751Z,0.89
2018-02-23T19:46:59.744Z,0.85
2018-02-23T19:49:34.673Z,0.77
2018-02-23T19:52:09.911Z,0.74
2018-02-23T19:54:44.895Z,0.75
2018-02-23T19:57:19.616Z,0.80
2018-02-23T19:59:54.708Z,0.86
2018-02-23T20:02:29.703Z,0.82
2018-02-23T20:05:04.377Z,0.85
2018-02-23T20:07:39.815Z,0.94
2018-02-23T20:10:15.152Z,0.84
2018-02-23T20:12:49.712Z,0.87
2018-02-23T20:15:25.249Z,0.86
2018-02-23T20:17:59.915Z,0.86
2018-02-23T20:20:34.788Z,0.78
2018-02-23T20:23:10.024Z,0.72
2018-02-23T20:25:45.092Z,0.74
2018-02-23T20:28:20.055Z,0.72
2018-02-23T20:30:54.716Z,0.55
2018-02-23T20:33:29.691Z,0.56
2018-02-23T20:36:04.774Z,0.45
2018-02-23T20:38:40.003Z,0.48
2018-02-23T20:41:14.867Z,0.45
2018-02-23T20:43:49.778Z,0.35
2018-02-23T20:46:24.143Z,0.24
2018-02-23T20:48:59.171Z,0.33
2018-02-23T20:51:34.223Z,0.44
2018-02-23T20:54:09.274Z,0.51
2018-02-23T20:56:43.819Z,0.60
2018-02-23T20:59:18.411Z,0.54
2018-02-23T21:01:52.868Z,0.44
2018-02-23T21:04:28.500Z,0.42
2018-02-23T21:07:03.044Z,0.39
2018-02-23T21:09:37.362Z,0.07
2018-02-23T21:12:12.331Z,-0.12
2018-02-23T21:14:46.874Z,-0.25
2018-02-23T21:17:22.370Z,-0.31
2018-02-23T21:19:57.903Z,-0.23
2018-02-23T21:22:32.586Z,-0.13
2018-02-23T21:25:08.205Z,0.04
2018-02-23T21:27:43.436Z,0.10
2018-02-23T21:30:18.624Z,0.00
2018-02-23T21:32:53.131Z,-0.02
2018-02-23T21:35:27.847Z,0.00
2018-02-23T21:38:02.964Z,-0.02
2018-02-23T21:40:37.692Z,-0.15
2018-02-23T21:43:13.077Z,-0.16
2018-02-23T21:45:48.102Z,-0.14
2018-02-23T21:48:23.237Z,-0.20
2018-02-23T21:50:59.253Z,-0.30
2018-02-23T21:53:33.571Z,-0.30
2018-02-23T21:56:09.294Z,-0.43
2018-02-23T21:58:43.707Z,-0.50
2018-02-23T22:01:19.132Z,-0.44
2018-02-23T22:03:54.096Z,-0.48
2018-02-23T22:06:29.303Z,-0.58
2018-02-23T22:09:03.495Z,-0.61
2018-02-23T22:11:38.682Z,-0.62
2018-02-23T22:14:13.951Z,-0.74
2018-02-23T22:16:48.974Z,-0.80
2018-02-23T22:19:23.801Z,-0.82
2018-02-23T22:21:59.101Z,-0.77
2018-02-23T22:24:34.385Z,-0.69
2018-02-23T22:27:09.824Z,-0.64
2018-02-23T22:29:44.907Z,-0.76
2018-02-23T22:32:20.319Z,-0.74
2018-02-23T22:34:55.519Z,-0.77
2018-02-23T22:37:30.081Z,-0.79
2018-02-23T22:40:05.068Z,-0.82
2018-02-23T22:42:40.371Z,-0.84
2018-02-23T22:45:15.071Z,-0.99
2018-02-23T22:47:50.253Z,-0.95
2018-02-23T22:50:25.234Z,-1.02
2018-02-23T22:53:00.491Z,-0.91
2018-02-23T22:55:36.119Z,-0.94
2018-02-23T22:58:11.320Z,-0.93
2018-02-23T23:00:46.603Z,-0.82
2018-02-23T23:03:22.187Z,-0.83
2018-02-23T23:05:57.241Z,-0.94
2018-02-23T23:08:32.530Z,-0.90
2018-02-23T23:11:07.562Z,-0.95
2018-02-23T23:13:42.140Z,-0.85
2018-02-23T23:16:17.324Z,-0.84
2018-02-23T23:18:52.367Z,-0.91
2018-02-23T23:21:27.118Z,-1.04
2018-02-23T23:24:02.069Z,-1.02
2018-02-23T23:26:37.179Z,-0.97
2018-02-23T23:29:12.375Z,-1.02
2018-02-23T23:31:47.924Z,-0.99
2018-02-23T23:34:23.260Z,-1.09
2018-02-23T23:36:58.061Z,-1.16
2018-02-23T23:39:33.123Z,-1.23
2018-02-23T23:42:09.409Z,-1.19
2018-02-23T23:44:44.648Z,-1.23
2018-02-23T23:47:19.452Z,-1.18
2018-02-23T23:49:54.708Z,-1.07
2018-02-23T23:52:29.475Z,-1.03
2018-02-23T23:55:05.043Z,-1.19
2018-02-23T23:57:39.431Z,-1.25
